Time;durP1;ratioP1;P1;durP2;ratioP2;P2;SDS_P1;SDS_P2;PMS_P1;PMS_P2;Temp;Humidity;BMP_temperature;BMP_pressure;BME280_temperature;BME280_humidity;BME280_pressure;Samples;Min_cycle;Max_cycle;Signal;HPM_P1;HPM_P2
2021/10/25 14:45:35;;;;;;;1.77;1.37;;;;;;;14.13;53.66;97015.94;5114952;27;20632;-66
2021/10/25 14:56:05;;;;;;;1.90;1.60;;;;;;;14.51;52.69;97013.28;5109431;28;20263;-68
2021/10/25 14:58:32;;;;;;;1.50;1.40;;;;;;;14.47;52.15;97014.03;5109662;28;20171;-68
2021/10/25 15:00:59;;;;;;;2.83;1.47;;;;;;;14.49;51.84;97011.91;5109447;28;20160;-68
2021/10/25 15:03:26;;;;;;;1.43;1.40;;;;;;;14.40;52.42;97006.28;5109564;28;20192;-68
2021/10/25 15:05:53;;;;;;;2.03;1.50;;;;;;;14.40;52.33;97000.22;5109536;28;20176;-68
2021/10/25 15:08:20;;;;;;;1.80;1.60;;;;;;;14.16;52.71;97007.50;5109528;28;20182;-68
2021/10/25 15:10:50;;;;;;;5.37;1.90;;;;;;;14.13;52.91;97005.38;5109536;28;20203;-68
2021/10/25 15:13:16;;;;;;;1.53;1.43;;;;;;;14.10;52.64;97001.38;5109298;28;20176;-68
2021/10/25 15:15:42;;;;;;;3.07;1.40;;;;;;;14.21;51.96;96999.66;5109759;28;20243;-69
2021/10/25 15:18:08;;;;;;;2.37;1.63;;;;;;;14.24;51.86;97004.47;5109366;28;20259;-68
2021/10/25 15:20:35;;;;;;;1.40;1.30;;;;;;;14.14;52.04;97002.50;5109159;28;20281;-68
2021/10/25 15:23:00;;;;;;;2.30;1.43;;;;;;;14.20;52.31;97006.00;5108868;28;20180;-68
2021/10/25 15:25:32;;;;;;;2.00;1.63;;;;;;;14.11;52.12;96995.06;5108445;28;20199;-68
2021/10/25 15:27:58;;;;;;;2.40;1.60;;;;;;;14.09;52.61;97001.66;5109645;28;20229;-69
2021/10/25 15:30:24;;;;;;;2.20;1.70;;;;;;;14.18;52.08;96999.38;5109282;28;20177;-68
2021/10/25 15:32:49;;;;;;;1.57;1.37;;;;;;;14.24;51.66;97001.03;5109345;28;20164;-69
2021/10/25 15:35:15;;;;;;;1.67;1.40;;;;;;;14.14;51.88;96999.88;5109029;28;20196;-68
2021/10/25 15:37:41;;;;;;;1.70;1.50;;;;;;;14.04;52.82;96994.44;5108455;28;20610;-68
2021/10/25 15:40:08;;;;;;;2.63;1.93;;;;;;;14.05;53.59;96995.25;5109001;28;20191;-68
2021/10/25 15:42:35;;;;;;;2.93;1.90;;;;;;;14.04;53.70;96996.31;5109318;28;20220;-68
2021/10/25 15:45:03;;;;;;;2.13;1.93;;;;;;;13.95;53.44;96995.09;5124375;28;20231;-69
2021/10/25 15:47:29;;;;;;;51.03;30.30;;;;;;;13.92;53.78;96991.13;5129682;28;20534;-68
2021/10/25 15:49:56;;;;;;;11.03;8.47;;;;;;;13.95;53.51;96989.84;5128959;28;20174;-68
2021/10/25 15:52:23;;;;;;;5.17;4.17;;;;;;;13.87;53.66;96987.63;5129498;28;20167;-68
2021/10/25 15:54:50;;;;;;;4.37;3.63;;;;;;;13.76;53.75;96991.16;5127754;28;20191;-68
2021/10/25 15:57:17;;;;;;;3.47;2.83;;;;;;;13.67;53.68;96988.13;5115653;28;20190;-68
2021/10/25 15:59:43;;;;;;;3.40;2.80;;;;;;;13.53;54.53;96989.50;5115626;28;20160;-69
2021/10/25 16:02:11;;;;;;;2.77;2.03;;;;;;;13.52;54.25;96995.78;5112513;28;20168;-70
2021/10/25 16:04:37;;;;;;;3.13;2.10;;;;;;;13.41;54.50;96996.66;5115371;28;20253;-69
2021/10/25 16:07:07;;;;;;;3.93;2.60;;;;;;;13.38;55.24;96991.84;5115736;28;20172;-69
2021/10/25 16:09:34;;;;;;;3.37;2.80;;;;;;;13.30;56.17;96985.19;5097159;28;20203;-69
2021/10/25 16:12:00;;;;;;;5.03;3.20;;;;;;;13.20;57.12;96987.66;5097190;28;20168;-69
2021/10/25 16:14:29;;;;;;;3.97;3.40;;;;;;;13.25;57.04;96987.72;5115481;28;20601;-68
2021/10/25 16:16:56;;;;;;;4.33;3.17;;;;;;;13.03;58.11;96984.16;5114177;28;20245;-69
2021/10/25 16:19:22;;;;;;;5.03;3.60;;;;;;;13.05;58.85;96984.69;5113991;28;20176;-69
2021/10/25 16:21:47;;;;;;;3.47;3.00;;;;;;;13.07;58.96;96978.19;5115375;28;20172;-69
2021/10/25 16:24:13;;;;;;;4.33;3.00;;;;;;;13.02;59.54;96988.63;5108067;28;20215;-69
2021/10/25 16:26:40;;;;;;;2.97;2.57;;;;;;;12.90;60.18;96988.66;5114579;28;20160;-69
2021/10/25 16:29:05;;;;;;;3.40;2.63;;;;;;;12.91;60.16;96986.84;5114375;28;20162;-67
2021/10/25 16:31:31;;;;;;;4.07;2.73;;;;;;;12.77;60.64;96990.78;5114928;28;20711;-68
2021/10/25 16:33:56;;;;;;;3.83;2.93;;;;;;;12.76;59.91;96991.84;5114196;28;20204;-69
2021/10/25 16:36:23;;;;;;;5.23;3.07;;;;;;;12.79;60.21;96997.41;5114473;28;20266;-68
2021/10/25 16:38:48;;;;;;;3.83;2.50;;;;;;;12.65;59.68;96988.19;5114891;28;20176;-69
2021/10/25 16:41:14;;;;;;;3.43;2.33;;;;;;;12.47;59.72;96996.28;5114952;28;20183;-69
2021/10/25 16:43:40;;;;;;;4.93;2.70;;;;;;;12.46;59.54;96989.41;5112649;28;20232;-69
2021/10/25 16:46:07;;;;;;;4.57;2.27;;;;;;;12.36;59.32;97000.53;5096589;28;20168;-69
2021/10/25 16:48:37;;;;;;;3.47;2.33;;;;;;;12.35;58.73;97003.38;5115083;28;20165;-69
2021/10/25 16:51:14;;;;;;;4.00;2.17;;;;;;;12.37;58.22;97006.59;5114895;28;20263;-69
2021/10/25 17:09:33;;;;;;;3.03;2.30;;;;;;;12.42;57.40;97010.13;5050456;28;20196;-69
2021/10/25 17:11:58;;;;;;;1.93;1.80;;;;;;;12.33;57.71;97003.59;5095118;28;20175;-69
2021/10/25 17:14:24;;;;;;;2.53;2.33;;;;;;;12.27;58.61;97006.34;5114739;28;20557;-69
2021/10/25 17:16:51;;;;;;;4.43;2.90;;;;;;;12.29;59.30;97005.09;5095829;28;20179;-69
2021/10/25 17:19:17;;;;;;;4.27;3.27;;;;;;;12.25;59.52;97009.25;5114139;28;20179;-69
2021/10/25 17:21:44;;;;;;;3.00;2.57;;;;;;;12.28;60.19;97007.97;5114036;28;20168;-69
2021/10/25 17:24:10;;;;;;;3.20;2.67;;;;;;;12.32;60.39;97020.41;5112536;28;20800;-70
2021/10/25 17:26:38;;;;;;;3.87;3.10;;;;;;;12.30;60.77;97019.06;5095703;28;20176;-70
2021/10/25 17:29:09;;;;;;;3.53;3.03;;;;;;;12.28;61.24;97013.22;5114200;28;20255;-69
2021/10/25 17:31:38;;;;;;;4.93;2.90;;;;;;;12.26;61.83;97017.91;5114121;28;20218;-69
2021/10/25 17:34:04;;;;;;;3.90;3.13;;;;;;;12.24;61.96;97020.78;5113846;28;20199;-69
2021/10/25 17:36:29;;;;;;;3.23;2.93;;;;;;;12.34;61.98;97020.97;5114845;28;20188;-70
2021/10/25 17:38:55;;;;;;;11.37;3.30;;;;;;;12.35;62.34;97016.53;5110585;28;20168;-70
2021/10/25 17:41:24;;;;;;;4.30;3.07;;;;;;;12.24;63.09;97020.78;5096374;28;20278;-75
2021/10/25 17:43:50;;;;;;;5.23;3.43;;;;;;;12.19;63.30;97018.03;5082166;28;20319;-72
2021/10/25 17:46:16;;;;;;;4.17;3.60;;;;;;;12.06;63.79;97019.06;5069145;28;20169;-71
2021/10/25 17:48:42;;;;;;;5.37;3.90;;;;;;;11.97;64.57;97019.66;5071107;28;20664;-71
2021/10/25 17:51:08;;;;;;;4.87;3.90;;;;;;;11.98;64.68;97023.88;5089016;28;20169;-71
2021/10/25 17:53:35;;;;;;;6.27;3.97;;;;;;;11.98;64.86;97023.88;5069659;28;20227;-70
2021/10/25 17:56:01;;;;;;;3.80;3.17;;;;;;;11.91;65.14;97024.00;5070732;28;20252;-71
2021/10/25 17:58:26;;;;;;;4.73;3.50;;;;;;;11.87;65.06;97027.31;5072795;28;20707;-71
2021/10/25 18:00:56;;;;;;;5.93;3.50;;;;;;;11.86;65.51;97033.59;5065677;28;20166;-70
2021/10/25 18:03:26;;;;;;;5.10;3.50;;;;;;;11.70;65.87;97027.16;5067483;28;20707;-76
2021/10/25 18:05:53;;;;;;;6.27;3.33;;;;;;;11.81;65.52;97031.66;5069964;28;20634;-76
2021/10/25 18:08:23;;;;;;;7.83;3.77;;;;;;;11.74;65.60;97033.59;5071326;28;20188;-74
2021/10/25 18:10:49;;;;;;;4.97;4.17;;;;;;;11.77;65.09;97033.13;5073444;28;20204;-74
2021/10/25 18:13:16;;;;;;;5.80;3.40;;;;;;;11.74;65.04;97048.53;5072910;28;20192;-74
2021/10/25 18:15:42;;;;;;;5.30;3.97;;;;;;;11.68;65.15;97048.38;5072914;28;20177;-74
2021/10/25 18:18:08;;;;;;;4.77;3.10;;;;;;;11.66;65.27;97039.13;5072535;28;20170;-74
2021/10/25 18:20:38;;;;;;;4.50;3.50;;;;;;;11.65;64.84;97048.03;5072086;28;20636;-74
2021/10/25 18:23:04;;;;;;;4.47;3.37;;;;;;;11.43;65.82;97045.13;5071885;28;20216;-74
2021/10/25 18:25:31;;;;;;;4.40;3.40;;;;;;;11.49;65.30;97046.88;5071133;28;20235;-74
2021/10/25 18:27:57;;;;;;;8.57;3.97;;;;;;;11.42;65.48;97048.00;5072306;28;20173;-74
2021/10/25 18:30:22;;;;;;;3.87;2.90;;;;;;;11.34;65.50;97045.69;5072462;28;20188;-73
2021/10/25 18:32:48;;;;;;;4.60;3.50;;;;;;;11.32;65.51;97043.28;5072488;28;20177;-74
2021/10/25 18:35:13;;;;;;;6.60;4.17;;;;;;;11.38;65.49;97038.97;5072295;28;20204;-74
2021/10/25 18:37:39;;;;;;;5.20;3.90;;;;;;;11.23;66.04;97042.03;5072599;28;20529;-74
2021/10/25 18:40:05;;;;;;;5.10;4.00;;;;;;;11.30;65.55;97045.34;5072197;28;20190;-75
2021/10/25 18:42:31;;;;;;;7.43;4.53;;;;;;;11.24;66.24;97043.63;5072512;28;20181;-74
2021/10/25 18:44:56;;;;;;;9.47;4.50;;;;;;;11.29;65.77;97043.75;5068477;28;20247;-74
2021/10/25 18:47:24;;;;;;;4.60;4.07;;;;;;;11.29;65.73;97042.94;5072407;28;20177;-73
2021/10/25 18:49:50;;;;;;;8.30;4.03;;;;;;;11.21;66.21;97036.19;5072234;28;20264;-73
2021/10/25 18:52:15;;;;;;;9.37;4.03;;;;;;;11.41;65.51;97035.91;5070944;28;20252;-74
2021/10/25 18:54:41;;;;;;;5.07;4.00;;;;;;;11.37;65.56;97034.75;5072406;28;20608;-74
2021/10/25 18:57:07;;;;;;;4.80;4.17;;;;;;;11.27;65.55;97038.72;5072289;28;20188;-71
2021/10/25 18:59:32;;;;;;;5.57;3.13;;;;;;;11.22;66.00;97032.53;5071884;28;20173;-71
2021/10/25 19:01:59;;;;;;;5.70;3.70;;;;;;;11.25;65.87;97037.34;5071898;28;20639;-73
2021/10/25 19:04:24;;;;;;;3.87;3.33;;;;;;;11.21;65.86;97031.75;5071822;28;20266;-73
2021/10/25 19:06:50;;;;;;;6.13;3.93;;;;;;;11.19;66.42;97039.06;5072170;28;20184;-74
2021/10/25 19:09:15;;;;;;;3.73;3.27;;;;;;;11.24;66.27;97038.38;5072603;28;20169;-72
2021/10/25 19:11:41;;;;;;;6.03;3.73;;;;;;;11.12;66.26;97035.72;5070692;28;20181;-73
2021/10/25 19:14:11;;;;;;;5.73;3.10;;;;;;;11.13;66.46;97041.75;5071856;28;20247;-72
2021/10/25 19:16:42;;;;;;;4.27;3.40;;;;;;;11.12;66.78;97040.97;5072157;28;20227;-73
2021/10/25 19:19:09;;;;;;;4.23;3.70;;;;;;;11.06;67.16;97035.81;5071583;28;20234;-74
2021/10/25 19:21:39;;;;;;;5.37;3.27;;;;;;;11.07;67.18;97037.41;5070833;28;20205;-73
2021/10/25 19:24:09;;;;;;;3.70;2.90;;;;;;;11.04;67.33;97041.25;5071118;28;20253;-74
2021/10/25 19:26:38;;;;;;;4.53;2.93;;;;;;;10.96;67.48;97048.66;5072027;28;20173;-72
2021/10/25 19:29:06;;;;;;;3.67;3.30;;;;;;;11.02;67.52;97053.00;5072283;28;20182;-72
2021/10/25 19:31:33;;;;;;;4.77;3.43;;;;;;;11.02;67.42;97042.53;5074108;28;20181;-72
2021/10/25 19:33:59;;;;;;;4.20;3.77;;;;;;;11.00;67.52;97047.19;5071645;28;20666;-74
2021/10/25 19:36:25;;;;;;;5.80;3.90;;;;;;;10.95;67.69;97042.59;5074617;28;20714;-73
2021/10/25 19:38:51;;;;;;;4.37;3.63;;;;;;;10.83;68.54;97042.56;5074782;28;20178;-73
2021/10/25 19:41:22;;;;;;;8.20;4.33;;;;;;;10.80;68.45;97042.22;5073680;28;20185;-73
2021/10/25 19:43:48;;;;;;;4.37;3.53;;;;;;;10.82;68.69;97037.53;5071032;28;20286;-74
2021/10/25 19:46:14;;;;;;;3.97;3.60;;;;;;;10.78;68.72;97042.41;5074767;28;20602;-73
2021/10/25 19:48:39;;;;;;;4.43;3.33;;;;;;;10.69;68.73;97043.75;5076280;28;20181;-72
2021/10/25 19:51:08;;;;;;;5.70;4.07;;;;;;;10.78;68.41;97047.66;5075503;28;20173;-73
2021/10/25 19:53:35;;;;;;;8.00;4.40;;;;;;;10.71;68.67;97043.50;5075772;28;20221;-72
2021/10/25 19:56:01;;;;;;;5.33;3.27;;;;;;;10.68;68.73;97038.72;5075301;28;20169;-72
2021/10/25 19:58:28;;;;;;;5.73;3.27;;;;;;;10.70;68.09;97047.94;5075059;28;20256;-72
2021/10/25 20:00:57;;;;;;;3.97;3.57;;;;;;;10.69;68.05;97051.63;5075234;28;20182;-72
2021/10/25 20:03:27;;;;;;;3.87;3.40;;;;;;;10.80;67.60;97057.94;5074289;28;20612;-73
2021/10/25 20:05:54;;;;;;;3.57;3.10;;;;;;;10.67;67.53;97056.28;5074978;28;20173;-73
2021/10/25 20:08:21;;;;;;;4.77;3.47;;;;;;;10.75;66.88;97050.75;5075210;28;20184;-73
2021/10/25 20:10:47;;;;;;;5.30;3.93;;;;;;;10.62;66.66;97053.50;5107792;28;20533;-74
2021/10/25 20:13:14;;;;;;;3.10;2.60;;;;;;;10.53;66.13;97054.84;5074941;28;20176;-73
2021/10/25 20:15:40;;;;;;;4.30;2.70;;;;;;;10.54;65.45;97059.03;5074196;28;20165;-73
2021/10/25 20:18:09;;;;;;;3.33;2.53;;;;;;;10.59;64.28;97053.94;5066263;28;20697;-73
2021/10/25 20:20:35;;;;;;;3.10;2.53;;;;;;;10.61;63.87;97051.09;5074346;28;20173;-73
2021/10/25 20:23:00;;;;;;;3.03;2.50;;;;;;;10.61;63.57;97058.97;5071229;28;20169;-73
2021/10/25 20:25:26;;;;;;;4.23;2.97;;;;;;;10.64;63.73;97055.91;5072585;28;20286;-73
2021/10/25 20:27:51;;;;;;;3.73;2.60;;;;;;;10.52;63.98;97055.06;5071193;28;20300;-72
2021/10/25 20:30:17;;;;;;;2.87;2.57;;;;;;;10.53;63.91;97057.47;5071709;28;20520;-73
2021/10/25 20:32:42;;;;;;;4.73;3.03;;;;;;;10.43;64.58;97065.81;5072507;28;20306;-73
2021/10/25 20:35:08;;;;;;;3.57;2.50;;;;;;;10.46;64.82;97059.34;5072483;28;20227;-73
2021/10/25 20:37:33;;;;;;;5.03;2.67;;;;;;;10.43;64.84;97062.38;5074204;28;20185;-73
2021/10/25 20:39:59;;;;;;;4.90;3.10;;;;;;;10.48;65.32;97065.16;5074281;28;20263;-73
2021/10/25 20:42:24;;;;;;;2.97;2.77;;;;;;;10.40;65.35;97062.84;5072966;28;20272;-74
2021/10/25 20:44:50;;;;;;;3.40;3.10;;;;;;;10.41;65.65;97065.25;5102794;28;20244;-73
2021/10/25 20:47:16;;;;;;;3.43;3.13;;;;;;;10.42;65.95;97066.06;5113108;28;20195;-74
2021/10/25 20:49:42;;;;;;;6.23;3.80;;;;;;;10.38;66.28;97070.09;5095962;28;20183;-74
2021/10/25 20:52:07;;;;;;;4.40;3.10;;;;;;;10.36;66.36;97069.53;5114475;28;20172;-74
2021/10/25 20:54:33;;;;;;;6.13;3.37;;;;;;;10.34;66.61;97071.56;5114382;28;20203;-73
2021/10/25 20:56:58;;;;;;;3.47;3.10;;;;;;;10.18;67.03;97072.13;5114521;28;20172;-74
2021/10/25 20:59:24;;;;;;;4.43;2.90;;;;;;;10.16;67.46;97076.75;5095925;28;20558;-73
2021/10/25 21:01:49;;;;;;;6.20;3.23;;;;;;;10.13;67.71;97080.63;5113485;28;20219;-73
2021/10/25 21:04:15;;;;;;;4.23;3.30;;;;;;;10.13;67.70;97085.06;5113078;28;20227;-73
2021/10/25 21:06:44;;;;;;;4.47;3.03;;;;;;;10.15;68.10;97091.66;5114454;28;20180;-74
2021/10/25 21:09:10;;;;;;;3.80;3.37;;;;;;;10.15;68.48;97088.25;5113989;28;20229;-73
2021/10/25 21:11:36;;;;;;;6.20;3.23;;;;;;;10.12;69.06;97086.88;5114055;28;20164;-73
2021/10/25 21:14:02;;;;;;;3.90;3.50;;;;;;;10.00;70.11;97097.25;5114273;28;20220;-73
2021/10/25 21:16:32;;;;;;;5.60;3.90;;;;;;;9.94;71.21;97099.91;5113914;28;20211;-73
2021/10/25 21:18:59;;;;;;;6.40;3.70;;;;;;;9.89;72.19;97102.38;5094654;28;20562;-73
2021/10/25 21:21:27;;;;;;;5.50;3.90;;;;;;;9.90;72.40;97106.59;5112370;28;20188;-73
2021/10/25 21:23:52;;;;;;;5.27;3.50;;;;;;;9.93;72.64;97100.94;5112528;28;20562;-74
2021/10/25 21:26:18;;;;;;;5.40;3.73;;;;;;;9.96;72.46;97103.13;5112840;28;20267;-69
2021/10/25 21:28:45;;;;;;;4.47;3.77;;;;;;;9.84;73.21;97100.41;5113619;28;20176;-75
2021/10/25 21:31:15;;;;;;;4.33;3.93;;;;;;;9.79;74.08;97100.25;5113754;28;20186;-76
2021/10/25 21:33:41;;;;;;;5.77;3.93;;;;;;;9.73;74.57;97103.72;5113679;28;20224;-76
2021/10/25 21:36:07;;;;;;;4.33;3.70;;;;;;;9.79;74.21;97099.44;5113845;28;20175;-75
2021/10/25 21:38:32;;;;;;;7.13;4.30;;;;;;;9.82;74.52;97102.44;5114461;28;20541;-76
2021/10/25 21:40:59;;;;;;;6.53;4.30;;;;;;;9.76;74.63;97105.88;5114229;28;20183;-75
2021/10/25 21:43:24;;;;;;;8.90;4.60;;;;;;;9.72;76.02;97101.31;5111586;28;20239;-76
2021/10/25 21:45:50;;;;;;;4.80;3.70;;;;;;;9.79;75.75;97102.88;5113849;28;20180;-76
2021/10/25 21:48:15;;;;;;;4.57;3.90;;;;;;;9.77;76.40;97109.31;5114059;28;20350;-75
2021/10/25 21:50:41;;;;;;;5.10;4.13;;;;;;;9.70;76.96;97103.31;5114299;28;20252;-75
2021/10/25 21:53:06;;;;;;;7.40;4.53;;;;;;;9.61;77.94;97113.25;5095719;28;20178;-76
2021/10/25 21:55:32;;;;;;;4.13;3.67;;;;;;;9.69;77.52;97107.78;5114014;28;20535;-75
2021/10/25 21:57:58;;;;;;;5.20;4.00;;;;;;;9.61;77.98;97105.41;5113948;28;20178;-75
2021/10/25 22:00:29;;;;;;;5.37;4.10;;;;;;;9.46;79.61;97103.09;5095819;28;20179;-76
2021/10/25 22:02:54;;;;;;;5.20;4.00;;;;;;;9.58;79.44;97103.22;5114105;28;20228;-75
2021/10/25 22:05:20;;;;;;;5.93;4.07;;;;;;;9.65;79.15;97108.38;5095379;28;20200;-75
2021/10/25 22:07:45;;;;;;;5.23;4.17;;;;;;;9.66;79.81;97108.19;5114029;28;20259;-75
2021/10/25 22:10:10;;;;;;;5.30;4.07;;;;;;;9.72;79.85;97107.34;5113867;28;20171;-75
2021/10/25 22:12:39;;;;;;;5.17;4.40;;;;;;;9.78;79.99;97108.31;5113171;28;20164;-76
2021/10/25 22:15:06;;;;;;;5.83;4.37;;;;;;;9.59;81.46;97110.84;5112572;28;20674;-75
2021/10/25 22:17:32;;;;;;;5.87;4.53;;;;;;;9.67;81.09;97101.94;5113656;28;20168;-75
2021/10/25 22:19:57;;;;;;;5.80;4.33;;;;;;;9.63;82.00;97102.59;5113329;28;20210;-75
2021/10/25 22:22:23;;;;;;;6.87;5.07;;;;;;;9.64;82.66;97112.81;5113106;28;20203;-75
2021/10/25 22:24:48;;;;;;;6.37;5.13;;;;;;;9.51;83.87;97113.75;5112887;28;20203;-75
2021/10/25 22:27:14;;;;;;;7.10;4.80;;;;;;;9.57;84.00;97112.91;5113500;28;20183;-76
2021/10/25 22:29:40;;;;;;;6.00;4.87;;;;;;;9.66;83.83;97104.75;5113646;28;20172;-75
2021/10/25 22:32:06;;;;;;;5.07;4.57;;;;;;;9.77;84.81;97111.94;5112752;28;20176;-76
2021/10/25 22:34:32;;;;;;;7.63;5.00;;;;;;;9.82;84.52;97119.94;5112917;28;20202;-76
2021/10/25 22:36:58;;;;;;;6.07;4.93;;;;;;;9.93;84.29;97120.06;5113329;28;20271;-75
2021/10/25 22:39:24;;;;;;;9.63;5.27;;;;;;;10.18;83.76;97120.09;5113205;28;20172;-76
2021/10/25 22:41:49;;;;;;;5.47;4.73;;;;;;;10.26;83.41;97122.41;5094742;28;20179;-75
2021/10/25 22:44:14;;;;;;;6.67;5.00;;;;;;;10.29;83.88;97127.25;5110853;28;20227;-76
2021/10/25 22:46:40;;;;;;;7.80;4.83;;;;;;;10.30;83.63;97118.38;5095450;28;20180;-75
2021/10/25 22:49:05;;;;;;;10.27;4.97;;;;;;;10.44;83.68;97132.13;5113465;28;20206;-75
2021/10/25 22:51:31;;;;;;;7.23;4.60;;;;;;;10.35;84.14;97123.75;5113217;28;20193;-76
2021/10/25 22:53:58;;;;;;;7.70;4.70;;;;;;;10.41;84.18;97124.72;5113390;28;20195;-75
2021/10/25 22:56:23;;;;;;;5.73;4.57;;;;;;;10.54;83.26;97135.03;5113040;28;20202;-76
2021/10/25 22:58:49;;;;;;;7.13;4.73;;;;;;;10.49;83.71;97131.47;5095225;28;20200;-76
2021/10/25 23:01:14;;;;;;;5.10;4.23;;;;;;;10.38;84.11;97133.00;5112841;28;20168;-76
2021/10/25 23:03:40;;;;;;;4.70;4.30;;;;;;;10.50;83.58;97133.88;5112544;28;20216;-75
2021/10/25 23:06:05;;;;;;;6.00;4.47;;;;;;;10.43;83.56;97136.56;5114975;28;20160;-75
2021/10/25 23:08:31;;;;;;;6.27;4.67;;;;;;;10.37;83.91;97136.63;5117561;28;20182;-75
2021/10/25 23:10:56;;;;;;;7.13;4.53;;;;;;;10.31;84.08;97140.91;5117075;28;20172;-75
2021/10/25 23:13:22;;;;;;;16.53;6.27;;;;;;;10.25;84.13;97135.75;5116694;28;20228;-76
2021/10/25 23:15:47;;;;;;;4.77;4.23;;;;;;;10.16;84.91;97137.00;5117198;28;20171;-76
2021/10/25 23:18:14;;;;;;;5.53;4.77;;;;;;;10.08;85.02;97134.66;5116801;28;20278;-76
2021/10/25 23:20:39;;;;;;;6.47;5.00;;;;;;;9.99;85.69;97137.53;5116576;28;20512;-75
2021/10/25 23:23:04;;;;;;;7.20;4.43;;;;;;;9.82;86.22;97135.66;5116634;28;20183;-75
2021/10/25 23:25:30;;;;;;;5.17;4.63;;;;;;;9.75;87.09;97137.53;5116179;28;20218;-76
2021/10/25 23:27:55;;;;;;;6.53;4.77;;;;;;;9.79;87.24;97142.13;5116568;28;20168;-75
2021/10/25 23:30:21;;;;;;;5.60;4.77;;;;;;;9.62;88.14;97148.88;5098667;28;20179;-76
2021/10/25 23:32:47;;;;;;;6.97;5.23;;;;;;;9.58;88.39;97142.47;5116646;28;20246;-75
2021/10/25 23:35:12;;;;;;;7.87;4.93;;;;;;;9.55;88.67;97145.50;5097972;28;20194;-75
2021/10/25 23:37:38;;;;;;;5.57;4.57;;;;;;;9.54;88.58;97144.69;5116714;28;20199;-75
2021/10/25 23:40:05;;;;;;;6.40;5.17;;;;;;;9.51;88.51;97154.78;5098054;28;20195;-75
2021/10/25 23:42:31;;;;;;;6.50;4.57;;;;;;;9.44;89.89;97143.56;5098267;28;20194;-76
2021/10/25 23:44:56;;;;;;;5.63;5.03;;;;;;;9.49;89.31;97148.97;5113615;28;20228;-75
2021/10/25 23:47:22;;;;;;;9.20;5.47;;;;;;;9.50;89.20;97148.75;5116279;28;20708;-75
2021/10/25 23:49:47;;;;;;;9.23;5.53;;;;;;;9.52;89.31;97156.41;5116148;28;20172;-75
2021/10/25 23:52:13;;;;;;;8.27;5.03;;;;;;;9.50;89.78;97154.00;5098048;28;20168;-75
2021/10/25 23:54:38;;;;;;;7.40;4.77;;;;;;;9.37;90.74;97156.66;5116309;28;20195;-76
2021/10/25 23:57:05;;;;;;;7.27;4.43;;;;;;;9.29;91.42;97156.13;5116489;28;20187;-75
2021/10/25 23:59:31;;;;;;;6.13;4.63;;;;;;;9.33;91.39;97162.53;5116718;28;20176;-75
